createdAt,value
2019-04-28T00:01:54.771Z,72.07
2019-04-28T00:04:24.386Z,71.54
2019-04-28T00:06:54.026Z,70.74
2019-04-28T00:09:23.789Z,70.71
2019-04-28T00:11:53.499Z,70.59
2019-04-28T00:14:23.186Z,71.15
2019-04-28T00:16:53.195Z,70.99
2019-04-28T00:19:24.514Z,70.70
2019-04-28T00:21:55.802Z,70.36
2019-04-28T00:24:27.065Z,72.04
2019-04-28T00:26:58.323Z,72.06
2019-04-28T00:29:38.677Z,72.12
2019-04-28T00:32:01.088Z,71.87
2019-04-28T00:34:31.201Z,72.70
2019-04-28T00:37:02.559Z,72.85
2019-04-28T00:39:32.200Z,73.11
2019-04-28T00:42:03.338Z,73.68
2019-04-28T00:44:33.561Z,74.13
2019-04-28T00:47:03.175Z,73.56
2019-04-28T00:49:47.790Z,72.80
2019-04-28T00:52:19.419Z,71.28
2019-04-28T00:54:50.050Z,71.09
2019-04-28T00:57:21.217Z,71.23
2019-04-28T00:59:57.466Z,71.55
2019-04-28T01:02:24.108Z,71.72
2019-04-28T01:04:53.876Z,72.11
2019-04-28T01:07:23.586Z,72.10
2019-04-28T01:09:53.206Z,71.99
2019-04-28T01:12:22.843Z,71.92
2019-04-28T01:14:54.967Z,71.54
2019-04-28T01:17:34.403Z,70.49
2019-04-28T01:20:13.336Z,69.37
2019-04-28T01:22:42.973Z,71.02
2019-04-28T01:25:12.787Z,70.43
2019-04-28T01:27:42.270Z,71.26
2019-04-28T01:30:13.836Z,71.09
2019-04-28T01:32:49.728Z,71.03
2019-04-28T01:35:20.921Z,70.38
2019-04-28T01:37:50.834Z,70.72
2019-04-28T01:40:20.672Z,71.22
2019-04-28T01:42:50.282Z,70.98
2019-04-28T01:45:20.553Z,71.34
2019-04-28T01:47:50.512Z,70.93
2019-04-28T01:50:20.572Z,71.04
2019-04-28T01:52:51.588Z,70.57
2019-04-28T01:55:21.434Z,70.37
2019-04-28T01:57:51.044Z,70.46
2019-04-28T02:00:25.497Z,70.05
2019-04-28T02:02:53.113Z,70.35
2019-04-28T02:05:22.820Z,71.27
2019-04-28T02:07:52.436Z,71.08
2019-04-28T02:10:22.218Z,69.66
2019-04-28T02:12:51.835Z,70.51
2019-04-28T02:15:21.515Z,70.83
2019-04-28T02:17:51.639Z,70.69
2019-04-28T02:20:23.229Z,70.19
2019-04-28T02:23:03.638Z,70.52
2019-04-28T02:25:33.256Z,70.91
2019-04-28T02:28:02.896Z,71.30
2019-04-28T02:30:45.442Z,71.22
2019-04-28T02:33:03.941Z,70.42
2019-04-28T02:35:34.282Z,71.10
2019-04-28T02:38:04.258Z,71.77
2019-04-28T02:40:33.872Z,72.40
2019-04-28T02:43:03.516Z,71.84
2019-04-28T02:45:36.246Z,71.37
2019-04-28T02:48:07.668Z,72.37
2019-04-28T02:50:41.100Z,72.68
2019-04-28T02:53:17.889Z,72.91
2019-04-28T02:55:47.580Z,71.93
2019-04-28T02:58:17.290Z,72.58
2019-04-28T03:01:02.839Z,73.28
2019-04-28T03:03:20.922Z,73.33
2019-04-28T03:05:51.201Z,72.34
2019-04-28T03:08:21.711Z,71.81
2019-04-28T03:10:51.500Z,71.96
2019-04-28T03:13:21.182Z,72.66
2019-04-28T03:15:51.768Z,73.17
2019-04-28T03:18:21.659Z,72.45
2019-04-28T03:20:51.851Z,72.93
2019-04-28T03:23:22.033Z,72.29
2019-04-28T03:26:01.369Z,71.98
2019-04-28T03:28:33.690Z,72.36
2019-04-28T03:31:35.003Z,72.69
2019-04-28T03:33:43.529Z,71.74
2019-04-28T03:36:13.830Z,71.98
2019-04-28T03:38:40.639Z,72.10
2019-04-28T03:41:11.358Z,71.81
2019-04-28T03:43:41.126Z,72.19
2019-04-28T03:46:15.077Z,73.01
2019-04-28T03:48:44.715Z,73.50
2019-04-28T03:51:14.395Z,72.11
2019-04-28T03:53:44.050Z,71.76
2019-04-28T03:56:13.657Z,72.16
2019-04-28T03:58:43.312Z,71.67
2019-04-28T04:01:12.980Z,71.08
2019-04-28T04:03:42.647Z,71.81
2019-04-28T04:06:12.270Z,71.40
2019-04-28T04:08:41.899Z,71.42
2019-04-28T04:11:17.045Z,71.24
2019-04-28T04:14:03.889Z,70.94
2019-04-28T04:16:45.028Z,69.94
2019-04-28T04:19:16.229Z,69.87
2019-04-28T04:21:45.842Z,68.34
2019-04-28T04:24:15.506Z,69.19
2019-04-28T04:26:45.122Z,70.96
2019-04-28T04:29:14.735Z,71.61
2019-04-28T04:31:44.373Z,71.36
2019-04-28T04:34:13.987Z,70.75
2019-04-28T04:36:43.622Z,71.94
2019-04-28T04:39:13.264Z,71.57
2019-04-28T04:41:43.753Z,71.24
2019-04-28T04:44:13.567Z,70.53
2019-04-28T04:46:43.211Z,70.99
2019-04-28T04:49:12.848Z,70.63
2019-04-28T04:51:44.005Z,69.26
2019-04-28T04:54:13.804Z,69.96
2019-04-28T04:56:43.446Z,70.53
2019-04-28T04:59:13.066Z,70.42
2019-04-28T05:01:47.137Z,69.45
2019-04-28T05:04:19.705Z,70.00
2019-04-28T05:06:49.723Z,68.90
2019-04-28T05:09:19.672Z,69.12
2019-04-28T05:11:50.118Z,69.62
2019-04-28T05:14:20.057Z,70.07
2019-04-28T05:16:49.861Z,70.39
2019-04-28T05:19:20.006Z,70.75
2019-04-28T05:21:49.982Z,71.06
2019-04-28T05:24:25.651Z,71.46
2019-04-28T05:26:55.264Z,71.51
2019-04-28T05:29:26.699Z,71.24
2019-04-28T05:31:59.846Z,71.14
2019-04-28T05:34:29.516Z,71.20
2019-04-28T05:37:00.688Z,71.19
2019-04-28T05:39:30.371Z,71.18
2019-04-28T05:42:00.792Z,71.16
2019-04-28T05:44:32.130Z,71.20
2019-04-28T05:47:02.026Z,71.42
2019-04-28T05:49:31.408Z,71.02
2019-04-28T05:52:20.035Z,70.87
2019-04-28T05:55:10.190Z,70.57
2019-04-28T05:57:53.046Z,70.20
2019-04-28T06:00:23.892Z,70.93
2019-04-28T06:02:56.815Z,71.99
2019-04-28T06:05:26.668Z,70.38
2019-04-28T06:07:59.610Z,71.08
2019-04-28T06:10:29.877Z,71.87
2019-04-28T06:12:59.822Z,72.06
2019-04-28T06:15:29.585Z,71.53
2019-04-28T06:18:00.184Z,71.60
2019-04-28T06:20:30.371Z,72.49
2019-04-28T06:23:00.111Z,71.25
2019-04-28T06:25:29.736Z,72.19
2019-04-28T06:27:59.803Z,70.60
2019-04-28T06:30:29.471Z,71.11
2019-04-28T06:33:07.988Z,71.02
2019-04-28T06:35:35.067Z,67.89
2019-04-28T06:38:04.747Z,69.94
2019-04-28T06:40:34.381Z,69.16
2019-04-28T06:43:04.064Z,69.34
2019-04-28T06:45:33.748Z,68.41
2019-04-28T06:48:03.361Z,69.09
2019-04-28T06:50:33.020Z,68.62
2019-04-28T06:53:03.042Z,67.95
2019-04-28T06:55:32.825Z,67.49
2019-04-28T06:58:02.439Z,67.99
2019-04-28T07:00:32.093Z,67.85
2019-04-28T07:03:01.724Z,67.22
2019-04-28T07:05:31.667Z,68.16
2019-04-28T07:08:01.291Z,67.72
2019-04-28T07:10:30.906Z,65.98
2019-04-28T07:13:00.607Z,65.43
2019-04-28T07:15:30.231Z,65.65
2019-04-28T07:17:59.867Z,66.63
2019-04-28T07:20:32.734Z,65.14
2019-04-28T07:23:02.526Z,66.11
2019-04-28T07:25:32.476Z,66.59
2019-04-28T07:28:02.115Z,66.78
2019-04-28T07:30:31.741Z,66.51
2019-04-28T07:33:01.422Z,65.50
2019-04-28T07:35:31.107Z,66.80
2019-04-28T07:38:00.723Z,66.53
2019-04-28T07:40:30.363Z,65.71
2019-04-28T07:42:59.985Z,65.22
2019-04-28T07:45:29.703Z,64.56
2019-04-28T07:47:59.587Z,64.76
2019-04-28T07:50:29.227Z,64.25
2019-04-28T07:53:03.256Z,64.48
2019-04-28T07:55:33.162Z,64.56
2019-04-28T07:58:02.748Z,64.43
2019-04-28T08:00:32.991Z,63.77
2019-04-28T08:03:02.608Z,63.48
2019-04-28T08:05:32.231Z,64.45
2019-04-28T08:08:01.941Z,63.76
2019-04-28T08:10:31.631Z,63.62
2019-04-28T08:13:01.271Z,63.06
2019-04-28T08:15:30.889Z,64.26
2019-04-28T08:18:00.523Z,64.07
2019-04-28T08:20:30.204Z,63.42
2019-04-28T08:22:59.845Z,63.04
2019-04-28T08:25:29.461Z,62.55
2019-04-28T08:27:59.369Z,61.93
2019-04-28T08:30:29.126Z,61.61
2019-04-28T08:33:00.411Z,61.83
2019-04-28T08:35:30.203Z,61.08
2019-04-28T08:37:59.929Z,60.98
2019-04-28T08:40:29.538Z,61.77
2019-04-28T08:42:59.256Z,60.01
2019-04-28T08:45:28.874Z,59.00
2019-04-28T08:47:58.493Z,58.40
2019-04-28T08:50:28.128Z,59.02
2019-04-28T08:52:57.740Z,59.60
2019-04-28T08:55:27.392Z,58.23
2019-04-28T08:57:57.087Z,57.85
2019-04-28T09:00:26.746Z,57.36
2019-04-28T09:02:56.370Z,58.00
2019-04-28T09:05:26.016Z,56.21
2019-04-28T09:07:55.637Z,56.76
2019-04-28T09:10:25.271Z,57.76
2019-04-28T09:12:54.891Z,55.80
2019-04-28T09:15:24.572Z,54.49
2019-04-28T09:17:54.197Z,55.06
2019-04-28T09:20:23.819Z,55.46
2019-04-28T09:22:53.472Z,55.08
2019-04-28T09:25:23.095Z,55.23
2019-04-28T09:27:52.755Z,54.33
2019-04-28T09:30:22.529Z,56.67
2019-04-28T09:32:52.241Z,56.54
2019-04-28T09:35:21.881Z,54.73
2019-04-28T09:37:51.529Z,54.12
2019-04-28T09:40:21.159Z,54.57
2019-04-28T09:42:58.248Z,52.60
2019-04-28T09:45:29.517Z,55.87
2019-04-28T09:47:59.174Z,53.57
2019-04-28T09:50:28.803Z,53.64
2019-04-28T09:52:58.448Z,55.32
2019-04-28T09:55:28.072Z,52.25
2019-04-28T09:57:57.743Z,54.47
2019-04-28T10:00:27.437Z,54.01
2019-04-28T10:02:57.056Z,53.67
2019-04-28T10:05:26.793Z,55.97
2019-04-28T10:07:56.417Z,59.36
2019-04-28T10:10:26.069Z,60.17
2019-04-28T10:12:55.681Z,62.66
2019-04-28T10:15:25.496Z,64.03
2019-04-28T10:17:55.122Z,64.04
2019-04-28T10:20:24.923Z,65.90
2019-04-28T10:22:54.538Z,66.41
2019-04-28T10:25:24.158Z,67.97
2019-04-28T10:27:53.805Z,68.23
2019-04-28T10:30:23.559Z,68.01
2019-04-28T10:32:53.206Z,66.82
2019-04-28T10:35:22.820Z,65.66
2019-04-28T10:37:52.468Z,66.99
2019-04-28T10:40:48.687Z,66.37
2019-04-28T10:43:18.486Z,67.20
2019-04-28T10:45:49.959Z,68.23
2019-04-28T10:48:19.739Z,69.33
2019-04-28T10:50:49.367Z,69.07
2019-04-28T10:53:19.016Z,68.60
2019-04-28T10:55:48.643Z,68.96
2019-04-28T10:58:18.333Z,69.35
2019-04-28T11:00:48.033Z,69.47
2019-04-28T11:03:17.705Z,69.22
2019-04-28T11:05:47.418Z,69.73
2019-04-28T11:08:35.420Z,70.19
2019-04-28T11:11:06.708Z,70.05
2019-04-28T11:13:36.319Z,69.67
2019-04-28T11:16:06.378Z,69.93
2019-04-28T11:18:36.059Z,69.79
2019-04-28T11:21:05.785Z,69.57
2019-04-28T11:23:35.549Z,69.11
2019-04-28T11:26:05.403Z,69.77
2019-04-28T11:28:37.798Z,70.12
2019-04-28T11:31:07.236Z,69.44
2019-04-28T11:33:38.586Z,69.42
2019-04-28T11:36:08.418Z,69.23
2019-04-28T11:38:38.131Z,69.53
2019-04-28T11:41:07.886Z,68.32
2019-04-28T11:43:37.605Z,69.74
2019-04-28T11:46:08.861Z,69.53
2019-04-28T11:48:38.579Z,68.56
2019-04-28T11:51:08.196Z,68.83
2019-04-28T11:53:37.860Z,70.32
2019-04-28T11:56:07.542Z,70.02
2019-04-28T11:58:37.227Z,70.90
2019-04-28T12:01:08.585Z,70.84
2019-04-28T12:03:38.348Z,71.11
2019-04-28T12:06:07.983Z,71.38
2019-04-28T12:08:37.601Z,71.80
2019-04-28T12:11:08.946Z,72.24
2019-04-28T12:13:43.000Z,71.99
2019-04-28T12:16:14.808Z,71.42
2019-04-28T12:18:46.632Z,70.81
2019-04-28T12:21:16.413Z,70.97
2019-04-28T12:23:46.096Z,70.62
2019-04-28T12:26:15.736Z,70.42
2019-04-28T12:28:45.359Z,69.88
2019-04-28T12:31:14.994Z,68.59
2019-04-28T12:33:44.616Z,68.49
2019-04-28T12:36:14.339Z,68.08
2019-04-28T12:38:43.965Z,70.25
2019-04-28T12:41:13.588Z,68.70
2019-04-28T12:43:43.237Z,66.98
2019-04-28T12:46:12.865Z,65.31
2019-04-28T12:48:42.515Z,64.61
2019-04-28T12:51:12.321Z,65.09
2019-04-28T12:53:42.044Z,66.27
2019-04-28T12:56:12.249Z,66.07
2019-04-28T12:58:41.965Z,66.29
2019-04-28T13:01:16.280Z,66.94
2019-04-28T13:03:46.773Z,65.51
2019-04-28T13:06:23.516Z,66.85
2019-04-28T13:08:53.234Z,65.06
2019-04-28T13:11:22.863Z,62.02
2019-04-28T13:13:52.513Z,65.23
2019-04-28T13:16:22.138Z,63.89
2019-04-28T13:18:51.797Z,62.85
2019-04-28T13:21:21.429Z,63.07
2019-04-28T13:23:51.077Z,61.13
2019-04-28T13:26:20.786Z,61.67
2019-04-28T13:28:50.412Z,62.14
2019-04-28T13:31:20.077Z,63.10
2019-04-28T13:33:56.453Z,61.29
2019-04-28T13:36:21.070Z,60.53
2019-04-28T13:38:50.733Z,54.09
2019-04-28T13:41:20.425Z,56.57
2019-04-28T13:43:50.060Z,56.29
2019-04-28T13:46:19.710Z,52.48
2019-04-28T13:48:49.348Z,51.23
2019-04-28T13:51:19.093Z,52.88
2019-04-28T13:53:48.692Z,50.26
2019-04-28T13:56:18.353Z,52.85
2019-04-28T13:58:49.651Z,50.92
2019-04-28T14:01:29.554Z,50.88
2019-04-28T14:04:12.938Z,48.39
2019-04-28T14:06:44.254Z,48.12
2019-04-28T14:09:15.636Z,44.36
2019-04-28T14:11:45.499Z,46.23
2019-04-28T14:14:15.299Z,46.66
2019-04-28T14:16:46.155Z,49.42
2019-04-28T14:19:15.820Z,49.76
2019-04-28T14:21:45.718Z,50.90
2019-04-28T14:24:15.426Z,50.83
2019-04-28T14:26:45.219Z,50.21
2019-04-28T14:29:14.900Z,47.74
2019-04-28T14:31:44.586Z,49.64
2019-04-28T14:34:14.306Z,48.54
2019-04-28T14:36:44.019Z,48.58
2019-04-28T14:39:14.027Z,48.22
2019-04-28T14:41:43.758Z,48.50
2019-04-28T14:44:13.424Z,49.68
2019-04-28T14:46:43.041Z,51.16
2019-04-28T14:49:12.827Z,50.08
2019-04-28T14:51:42.471Z,51.86
2019-04-28T14:54:12.096Z,51.22
2019-04-28T14:56:41.815Z,50.75
2019-04-28T14:59:11.447Z,52.00
2019-04-28T15:01:55.926Z,50.85
2019-04-28T15:04:30.124Z,44.79
2019-04-28T15:07:03.914Z,46.22
2019-04-28T15:09:51.580Z,44.18
2019-04-28T15:12:21.348Z,43.33
2019-04-28T15:14:51.093Z,41.76
2019-04-28T15:17:20.815Z,39.93
2019-04-28T15:19:50.440Z,41.80
2019-04-28T15:22:20.093Z,44.62
2019-04-28T15:24:49.712Z,45.63
2019-04-28T15:27:19.370Z,42.11
2019-04-28T15:29:50.423Z,42.74
2019-04-28T15:32:20.135Z,44.55
2019-04-28T15:34:49.759Z,44.57
2019-04-28T15:37:19.629Z,46.25
2019-04-28T15:39:49.255Z,43.00
2019-04-28T15:42:18.878Z,44.67
2019-04-28T15:44:48.526Z,43.73
2019-04-28T15:47:18.159Z,44.62
2019-04-28T15:49:47.814Z,47.61
2019-04-28T15:52:17.438Z,48.69
2019-04-28T15:54:47.245Z,46.74
2019-04-28T15:57:16.875Z,47.37
2019-04-28T15:59:46.679Z,48.38
2019-04-28T16:02:16.310Z,49.91
2019-04-28T16:04:46.000Z,51.65
2019-04-28T16:07:24.558Z,53.43
2019-04-28T16:09:46.999Z,54.53
2019-04-28T16:12:16.655Z,55.20
2019-04-28T16:14:46.281Z,55.61
2019-04-28T16:17:15.938Z,56.10
2019-04-28T16:19:45.569Z,56.37
2019-04-28T16:22:15.217Z,55.37
2019-04-28T16:24:44.850Z,55.40
2019-04-28T16:27:14.519Z,56.20
2019-04-28T16:29:44.149Z,57.02
2019-04-28T16:32:13.843Z,57.60
2019-04-28T16:34:43.501Z,56.57
2019-04-28T16:37:13.120Z,56.14
2019-04-28T16:39:42.833Z,53.65
2019-04-28T16:42:12.464Z,54.53
2019-04-28T16:44:42.180Z,49.77
2019-04-28T16:47:11.809Z,52.83
2019-04-28T16:49:41.464Z,54.97
2019-04-28T16:52:11.086Z,55.88
2019-04-28T16:54:40.810Z,55.95
2019-04-28T16:57:12.077Z,55.15
2019-04-28T16:59:52.423Z,54.68
2019-04-28T17:02:26.266Z,53.39
2019-04-28T17:04:55.891Z,53.56
2019-04-28T17:07:25.618Z,54.43
2019-04-28T17:09:55.317Z,53.88
2019-04-28T17:12:25.037Z,54.59
2019-04-28T17:14:54.659Z,54.13
2019-04-28T17:17:24.320Z,54.00
2019-04-28T17:19:54.027Z,54.92
2019-04-28T17:22:23.738Z,55.90
2019-04-28T17:24:53.382Z,57.39
2019-04-28T17:27:23.040Z,55.67
2019-04-28T17:29:52.734Z,54.64
2019-04-28T17:32:22.389Z,56.93
2019-04-28T17:34:52.020Z,56.87
2019-04-28T17:37:21.847Z,58.05
2019-04-28T17:39:51.464Z,58.49
2019-04-28T17:42:21.081Z,56.29
2019-04-28T17:44:50.796Z,57.13
2019-04-28T17:47:20.866Z,58.24
2019-04-28T17:49:50.516Z,56.94
2019-04-28T17:52:20.273Z,57.65
2019-04-28T17:54:50.122Z,58.61
2019-04-28T17:57:19.907Z,58.71
2019-04-28T17:59:51.220Z,58.83
2019-04-28T18:02:38.597Z,57.05
2019-04-28T18:05:18.884Z,57.33
2019-04-28T18:07:49.779Z,57.94
2019-04-28T18:10:20.464Z,57.28
2019-04-28T18:13:00.369Z,57.33
2019-04-28T18:15:39.332Z,58.38
2019-04-28T18:18:28.535Z,60.52
2019-04-28T18:20:58.185Z,59.70
2019-04-28T18:23:27.811Z,59.37
2019-04-28T18:25:57.467Z,59.20
2019-04-28T18:28:27.093Z,60.71
2019-04-28T18:31:14.494Z,60.55
2019-04-28T18:33:45.780Z,61.24
2019-04-28T18:36:19.918Z,60.42
2019-04-28T18:38:51.208Z,59.19
2019-04-28T18:41:40.532Z,59.70
2019-04-28T18:44:11.900Z,60.09
2019-04-28T18:46:41.593Z,60.35
2019-04-28T18:49:11.253Z,60.82
2019-04-28T18:51:41.351Z,62.46
2019-04-28T18:54:11.001Z,62.60
2019-04-28T18:56:40.620Z,63.29
2019-04-28T18:59:10.347Z,63.41
2019-04-28T19:01:47.438Z,63.62
2019-04-28T19:04:17.204Z,62.20
2019-04-28T19:06:46.840Z,63.24
2019-04-28T19:09:22.639Z,63.66
2019-04-28T19:11:54.007Z,63.70
2019-04-28T19:14:41.555Z,63.98
2019-04-28T19:17:15.502Z,63.35
2019-04-28T19:19:45.133Z,64.45
2019-04-28T19:22:14.781Z,64.66
2019-04-28T19:24:44.410Z,64.41
2019-04-28T19:27:14.125Z,64.55
2019-04-28T19:29:43.744Z,64.34
2019-04-28T19:32:13.452Z,64.01
2019-04-28T19:34:43.070Z,63.94
2019-04-28T19:37:12.721Z,63.75
2019-04-28T19:39:42.827Z,63.87
2019-04-28T19:42:12.488Z,63.52
2019-04-28T19:44:42.103Z,62.98
2019-04-28T19:47:11.718Z,63.58
2019-04-28T19:49:41.431Z,64.13
2019-04-28T19:52:11.051Z,64.52
2019-04-28T19:54:42.428Z,64.78
2019-04-28T19:57:13.684Z,65.64
2019-04-28T19:59:53.940Z,65.41
2019-04-28T20:02:24.229Z,64.93
2019-04-28T20:04:53.860Z,65.66
2019-04-28T20:07:23.485Z,65.93
2019-04-28T20:09:53.136Z,65.88
2019-04-28T20:12:22.741Z,66.31
2019-04-28T20:14:52.370Z,66.37
2019-04-28T20:17:22.005Z,66.00
2019-04-28T20:19:51.618Z,66.41
2019-04-28T20:22:21.272Z,65.95
2019-04-28T20:24:50.956Z,65.88
2019-04-28T20:27:20.591Z,66.04
2019-04-28T20:29:50.208Z,66.47
2019-04-28T20:32:19.851Z,66.19
2019-04-28T20:34:49.600Z,66.24
2019-04-28T20:37:26.852Z,66.38
2019-04-28T20:39:58.128Z,66.93
2019-04-28T20:42:42.576Z,67.60
2019-04-28T20:45:13.961Z,67.36
2019-04-28T20:47:43.608Z,66.92
2019-04-28T20:50:14.221Z,67.05
2019-04-28T20:52:43.866Z,66.43
2019-04-28T20:55:13.744Z,66.26
2019-04-28T20:57:43.407Z,65.81
2019-04-28T21:00:13.235Z,66.11
2019-04-28T21:02:42.897Z,66.26
2019-04-28T21:05:12.670Z,66.43
2019-04-28T21:07:42.358Z,65.86
2019-04-28T21:10:12.074Z,66.62
2019-04-28T21:12:41.769Z,65.87
2019-04-28T21:15:11.890Z,66.01
2019-04-28T21:17:41.596Z,66.83
2019-04-28T21:20:11.477Z,67.10
2019-04-28T21:22:41.090Z,67.23
2019-04-28T21:25:11.139Z,66.87
2019-04-28T21:27:40.809Z,67.09
2019-04-28T21:30:11.703Z,66.94
2019-04-28T21:32:41.314Z,66.62
2019-04-28T21:35:11.146Z,66.04
2019-04-28T21:37:40.777Z,66.03
2019-04-28T21:40:12.276Z,66.80
2019-04-28T21:42:53.382Z,66.28
2019-04-28T21:45:30.476Z,66.66
2019-04-28T21:48:00.110Z,67.01
2019-04-28T21:50:29.733Z,67.27
2019-04-28T21:52:59.378Z,66.98
2019-04-28T21:55:28.994Z,66.39
2019-04-28T21:57:58.637Z,66.30
2019-04-28T22:00:43.293Z,65.79
2019-04-28T22:03:12.228Z,66.80
2019-04-28T22:05:41.915Z,66.98
2019-04-28T22:08:11.520Z,66.99
2019-04-28T22:10:41.153Z,67.17
2019-04-28T22:13:10.775Z,66.78
2019-04-28T22:15:40.478Z,66.46
2019-04-28T22:18:10.493Z,66.72
2019-04-28T22:20:40.135Z,67.74
2019-04-28T22:23:18.375Z,67.64
2019-04-28T22:25:42.762Z,67.62
2019-04-28T22:28:12.379Z,67.60
2019-04-28T22:30:42.040Z,67.95
2019-04-28T22:33:11.660Z,67.99
2019-04-28T22:35:41.278Z,68.26
2019-04-28T22:38:10.918Z,68.26
2019-04-28T22:40:40.533Z,67.49
2019-04-28T22:43:10.206Z,67.96
2019-04-28T22:45:39.895Z,67.96
2019-04-28T22:48:11.246Z,67.98
2019-04-28T22:50:45.485Z,68.05
2019-04-28T22:53:15.952Z,68.16
2019-04-28T22:55:47.246Z,68.36
2019-04-28T22:58:21.230Z,68.06
2019-04-28T23:00:52.823Z,68.03
2019-04-28T23:03:26.966Z,68.49
2019-04-28T23:05:56.992Z,68.69
2019-04-28T23:08:27.052Z,67.90
2019-04-28T23:10:56.807Z,67.85
2019-04-28T23:13:26.469Z,67.41
2019-04-28T23:15:56.136Z,67.98
2019-04-28T23:18:25.751Z,68.31
2019-04-28T23:20:57.102Z,67.86
2019-04-28T23:23:26.793Z,68.19
2019-04-28T23:25:56.509Z,67.96
2019-04-28T23:28:26.122Z,67.41
2019-04-28T23:30:55.757Z,67.42
2019-04-28T23:33:25.442Z,67.77
2019-04-28T23:35:55.155Z,68.07
2019-04-28T23:38:24.763Z,68.09
2019-04-28T23:40:56.062Z,68.41
2019-04-28T23:43:25.674Z,67.65
2019-04-28T23:45:55.298Z,67.71
2019-04-28T23:48:24.931Z,67.99
2019-04-28T23:51:04.880Z,67.09
2019-04-28T23:53:52.181Z,68.17
2019-04-28T23:56:21.796Z,68.66
2019-04-28T23:58:51.451Z,68.37
